createdAt,value
2019-02-28T00:00:23.477Z,10.90
2019-02-28T00:01:23.475Z,10.90
2019-02-28T00:02:23.492Z,10.99
2019-02-28T00:03:26.172Z,10.99
2019-02-28T00:04:23.508Z,10.93
2019-02-28T00:05:23.499Z,11.03
2019-02-28T00:06:23.512Z,10.94
2019-02-28T00:07:23.520Z,10.94
2019-02-28T00:08:23.531Z,11.01
2019-02-28T00:09:25.737Z,10.88
2019-02-28T00:10:23.541Z,10.98
2019-02-28T00:11:23.555Z,11.01
2019-02-28T00:12:23.557Z,11.06
2019-02-28T00:13:23.565Z,11.02
2019-02-28T00:14:23.570Z,11.05
2019-02-28T00:15:23.576Z,10.95
2019-02-28T00:16:23.581Z,11.01
2019-02-28T00:17:23.592Z,11.01
2019-02-28T00:18:23.593Z,10.90
2019-02-28T00:19:24.018Z,10.93
2019-02-28T00:20:23.625Z,11.01
2019-02-28T00:21:23.625Z,10.95
2019-02-28T00:22:23.635Z,10.83
2019-02-28T00:23:23.634Z,10.72
2019-02-28T00:24:23.648Z,10.76
2019-02-28T00:25:23.649Z,10.70
2019-02-28T00:26:23.661Z,10.68
2019-02-28T00:27:23.669Z,10.72
2019-02-28T00:28:25.923Z,10.70
2019-02-28T00:29:23.674Z,10.69
2019-02-28T00:30:23.679Z,10.62
2019-02-28T00:31:23.682Z,10.70
2019-02-28T00:32:24.797Z,10.52
2019-02-28T00:33:23.700Z,10.65
2019-02-28T00:34:23.722Z,10.52
2019-02-28T00:35:23.725Z,10.58
2019-02-28T00:36:23.729Z,10.47
2019-02-28T00:37:24.638Z,10.35
2019-02-28T00:38:23.744Z,10.28
2019-02-28T00:39:23.739Z,10.26
2019-02-28T00:40:23.750Z,10.22
2019-02-28T00:41:23.756Z,10.20
2019-02-28T00:42:23.770Z,10.25
2019-02-28T00:43:25.114Z,10.25
2019-02-28T00:44:23.778Z,10.24
2019-02-28T00:45:23.787Z,10.18
2019-02-28T00:46:23.787Z,10.14
2019-02-28T00:47:23.815Z,10.20
2019-02-28T00:48:23.806Z,10.14
2019-02-28T00:49:24.442Z,10.11
2019-02-28T00:50:23.818Z,10.13
2019-02-28T00:51:23.820Z,10.09
2019-02-28T00:52:23.832Z,10.10
2019-02-28T00:53:23.842Z,10.11
2019-02-28T00:54:23.847Z,10.09
2019-02-28T00:55:23.853Z,10.11
2019-02-28T00:56:23.860Z,10.16
2019-02-28T00:57:24.688Z,10.09
2019-02-28T00:58:28.595Z,10.11
2019-02-28T00:59:23.877Z,10.24
2019-02-28T01:00:23.877Z,10.14
2019-02-28T01:01:23.889Z,10.11
2019-02-28T01:02:23.897Z,10.13
2019-02-28T01:03:26.820Z,10.13
2019-02-28T01:04:23.901Z,10.07
2019-02-28T01:05:23.910Z,10.06
2019-02-28T01:06:23.933Z,10.02
2019-02-28T01:07:23.929Z,10.04
2019-02-28T01:08:23.933Z,10.04
2019-02-28T01:09:23.948Z,10.01
2019-02-28T01:10:23.950Z,9.96
2019-02-28T01:11:23.954Z,9.86
2019-02-28T01:12:23.961Z,9.80
2019-02-28T01:13:27.273Z,9.85
2019-02-28T01:14:23.978Z,9.88
2019-02-28T01:15:23.979Z,9.88
2019-02-28T01:16:23.989Z,9.88
2019-02-28T01:17:26.515Z,9.80
2019-02-28T01:18:24.002Z,9.75
2019-02-28T01:19:24.006Z,9.74
2019-02-28T01:20:24.018Z,9.81
2019-02-28T01:21:24.594Z,9.83
2019-02-28T01:22:26.832Z,9.75
2019-02-28T01:23:24.030Z,9.77
2019-02-28T01:24:24.041Z,9.68
2019-02-28T01:25:24.041Z,9.68
2019-02-28T01:26:24.051Z,9.65
2019-02-28T01:27:24.057Z,9.77
2019-02-28T01:28:26.946Z,9.71
2019-02-28T01:29:24.069Z,9.77
2019-02-28T01:30:24.074Z,9.74
2019-02-28T01:31:24.083Z,9.73
2019-02-28T01:32:24.086Z,9.78
2019-02-28T01:33:24.996Z,9.78
2019-02-28T01:34:24.098Z,9.68
2019-02-28T01:35:24.110Z,9.68
2019-02-28T01:36:24.111Z,9.75
2019-02-28T01:37:24.120Z,9.75
2019-02-28T01:38:25.096Z,9.65
2019-02-28T01:39:24.127Z,9.58
2019-02-28T01:40:24.138Z,9.70
2019-02-28T01:41:24.145Z,9.70
2019-02-28T01:42:24.150Z,9.62
2019-02-28T01:43:28.303Z,9.67
2019-02-28T01:44:24.168Z,9.60
2019-02-28T01:45:24.172Z,9.59
2019-02-28T01:46:24.175Z,9.63
2019-02-28T01:47:24.177Z,9.56
2019-02-28T01:48:24.194Z,9.63
2019-02-28T01:49:25.854Z,9.59
2019-02-28T01:50:24.199Z,9.62
2019-02-28T01:51:24.204Z,9.53
2019-02-28T01:52:24.213Z,9.42
2019-02-28T01:53:24.217Z,9.49
2019-02-28T01:54:27.299Z,9.50
2019-02-28T01:55:24.232Z,9.53
2019-02-28T01:56:24.235Z,9.55
2019-02-28T01:57:24.242Z,9.50
2019-02-28T01:58:24.255Z,9.45
2019-02-28T01:59:24.256Z,9.45
2019-02-28T02:00:24.502Z,9.53
2019-02-28T02:01:24.266Z,9.45
2019-02-28T02:02:24.277Z,9.50
2019-02-28T02:03:24.289Z,9.50
2019-02-28T02:04:24.287Z,9.40
2019-02-28T02:05:24.291Z,9.49
2019-02-28T02:06:25.713Z,9.48
2019-02-28T02:07:24.330Z,9.42
2019-02-28T02:08:24.318Z,9.41
2019-02-28T02:09:24.312Z,9.38
2019-02-28T02:10:24.327Z,9.41
2019-02-28T02:11:26.670Z,9.40
2019-02-28T02:12:24.331Z,9.40
2019-02-28T02:13:24.337Z,9.35
2019-02-28T02:14:24.354Z,9.35
2019-02-28T02:15:24.348Z,9.42
2019-02-28T02:16:27.699Z,9.44
2019-02-28T02:17:24.368Z,9.35
2019-02-28T02:18:24.366Z,9.38
2019-02-28T02:19:24.377Z,9.34
2019-02-28T02:20:26.311Z,9.35
2019-02-28T02:21:24.389Z,9.26
2019-02-28T02:22:24.385Z,9.27
2019-02-28T02:23:24.399Z,9.22
2019-02-28T02:24:27.976Z,9.27
2019-02-28T02:25:24.412Z,9.30
2019-02-28T02:26:24.425Z,9.17
2019-02-28T02:27:24.414Z,9.17
2019-02-28T02:28:27.153Z,9.16
2019-02-28T02:29:24.435Z,9.19
2019-02-28T02:30:24.436Z,9.08
2019-02-28T02:31:28.633Z,9.12
2019-02-28T02:32:24.454Z,9.16
2019-02-28T02:33:24.459Z,9.13
2019-02-28T02:34:28.130Z,9.04
2019-02-28T02:35:24.465Z,8.98
2019-02-28T02:36:24.476Z,8.98
2019-02-28T02:37:26.346Z,8.89
2019-02-28T02:38:24.489Z,8.83
2019-02-28T02:39:24.492Z,8.85
2019-02-28T02:40:24.498Z,8.83
2019-02-28T02:41:24.507Z,8.88
2019-02-28T02:42:24.514Z,8.78
2019-02-28T02:43:24.515Z,8.80
2019-02-28T02:44:30.691Z,8.80
2019-02-28T02:45:24.528Z,8.78
2019-02-28T02:46:24.534Z,8.78
2019-02-28T02:47:31.365Z,8.82
2019-02-28T02:48:24.549Z,8.71
2019-02-28T02:49:24.548Z,8.79
2019-02-28T02:50:24.556Z,8.76
2019-02-28T02:51:24.559Z,8.75
2019-02-28T02:52:30.000Z,8.76
2019-02-28T02:53:24.574Z,8.79
2019-02-28T02:54:24.579Z,8.79
2019-02-28T02:55:29.105Z,8.68
2019-02-28T02:56:24.642Z,8.67
2019-02-28T02:57:24.595Z,8.71
2019-02-28T02:58:28.001Z,8.67
2019-02-28T02:59:24.610Z,8.71
2019-02-28T03:00:24.611Z,8.63
2019-02-28T03:01:24.694Z,8.55
2019-02-28T03:02:28.665Z,8.61
2019-02-28T03:03:24.634Z,8.64
2019-02-28T03:04:24.635Z,8.57
2019-02-28T03:05:24.651Z,8.64
2019-02-28T03:06:24.641Z,8.61
2019-02-28T03:07:25.004Z,8.55
2019-02-28T03:08:24.652Z,8.54
2019-02-28T03:09:24.669Z,8.60
2019-02-28T03:10:24.669Z,8.57
2019-02-28T03:11:25.937Z,8.57
2019-02-28T03:12:24.698Z,8.54
2019-02-28T03:13:24.685Z,8.43
2019-02-28T03:14:24.689Z,8.43
2019-02-28T03:15:27.017Z,8.43
2019-02-28T03:16:24.707Z,8.45
2019-02-28T03:17:24.704Z,8.46
2019-02-28T03:18:24.712Z,8.43
2019-02-28T03:19:24.721Z,8.42
2019-02-28T03:20:24.723Z,8.31
2019-02-28T03:21:24.735Z,8.50
2019-02-28T03:22:29.800Z,8.42
2019-02-28T03:23:24.741Z,8.37
2019-02-28T03:24:24.751Z,8.45
2019-02-28T03:25:28.282Z,8.47
2019-02-28T03:26:24.757Z,8.31
2019-02-28T03:27:24.759Z,8.36
2019-02-28T03:28:28.175Z,8.36
2019-02-28T03:29:24.775Z,8.27
2019-02-28T03:30:31.103Z,8.31
2019-02-28T03:31:24.785Z,8.32
2019-02-28T03:32:24.785Z,8.27
2019-02-28T03:33:28.538Z,8.28
2019-02-28T03:34:24.820Z,8.29
2019-02-28T03:35:24.815Z,8.31
2019-02-28T03:36:24.809Z,8.31
2019-02-28T03:37:24.816Z,8.25
2019-02-28T03:38:24.823Z,8.27
2019-02-28T03:39:25.777Z,8.29
2019-02-28T03:40:24.831Z,8.27
2019-02-28T03:41:24.837Z,8.27
2019-02-28T03:42:28.528Z,8.22
2019-02-28T03:43:24.850Z,8.21
2019-02-28T03:44:24.855Z,8.14
2019-02-28T03:45:24.855Z,8.14
2019-02-28T03:46:24.869Z,8.13
2019-02-28T03:47:24.870Z,8.14
2019-02-28T03:48:24.881Z,8.13
2019-02-28T03:49:24.883Z,8.18
2019-02-28T03:50:24.887Z,8.21
2019-02-28T03:51:28.465Z,8.18
2019-02-28T03:52:24.900Z,8.24
2019-02-28T03:53:24.913Z,8.21
2019-02-28T03:54:28.887Z,8.14
2019-02-28T03:55:24.914Z,8.13
2019-02-28T03:56:24.924Z,8.21
2019-02-28T03:57:29.440Z,8.13
2019-02-28T03:58:24.927Z,8.12
2019-02-28T03:59:24.931Z,8.00
2019-02-28T04:00:32.728Z,8.03
2019-02-28T04:01:24.943Z,8.06
2019-02-28T04:02:24.952Z,8.06
2019-02-28T04:03:24.956Z,8.07
2019-02-28T04:04:24.955Z,8.07
2019-02-28T04:05:28.143Z,8.03
2019-02-28T04:06:24.964Z,8.13
2019-02-28T04:07:24.975Z,8.09
2019-02-28T04:08:29.314Z,8.04
2019-02-28T04:09:24.984Z,8.06
2019-02-28T04:10:24.990Z,7.96
2019-02-28T04:11:30.807Z,8.00
2019-02-28T04:12:25.003Z,7.88
2019-02-28T04:13:25.008Z,7.84
2019-02-28T04:14:28.520Z,7.85
2019-02-28T04:15:25.033Z,7.85
2019-02-28T04:16:25.027Z,7.86
2019-02-28T04:17:30.116Z,7.96
2019-02-28T04:18:25.037Z,7.99
2019-02-28T04:19:25.037Z,7.89
2019-02-28T04:20:25.038Z,7.92
2019-02-28T04:21:25.053Z,7.94
2019-02-28T04:22:25.053Z,7.85
2019-02-28T04:23:25.056Z,7.89
2019-02-28T04:24:25.066Z,7.86
2019-02-28T04:25:25.069Z,7.82
2019-02-28T04:26:25.072Z,7.89
2019-02-28T04:27:25.077Z,7.88
2019-02-28T04:28:25.081Z,7.70
2019-02-28T04:29:30.018Z,7.71
2019-02-28T04:30:25.095Z,7.82
2019-02-28T04:31:25.095Z,7.74
2019-02-28T04:32:27.625Z,7.82
2019-02-28T04:33:25.104Z,7.82
2019-02-28T04:34:25.183Z,7.74
2019-02-28T04:35:25.525Z,7.82
2019-02-28T04:36:25.133Z,7.84
2019-02-28T04:37:25.132Z,7.77
2019-02-28T04:38:25.135Z,7.81
2019-02-28T04:39:25.157Z,7.70
2019-02-28T04:40:26.944Z,7.73
2019-02-28T04:41:25.148Z,7.73
2019-02-28T04:42:25.154Z,7.67
2019-02-28T04:43:25.154Z,7.60
2019-02-28T04:44:25.159Z,7.60
2019-02-28T04:45:26.183Z,7.66
2019-02-28T04:46:25.170Z,7.70
2019-02-28T04:47:25.180Z,7.63
2019-02-28T04:48:25.181Z,7.67
2019-02-28T04:49:25.183Z,7.70
2019-02-28T04:50:25.207Z,7.58
2019-02-28T04:51:25.190Z,7.57
2019-02-28T04:52:25.201Z,7.60
2019-02-28T04:53:25.206Z,7.62
2019-02-28T04:54:27.910Z,7.66
2019-02-28T04:55:25.216Z,7.62
2019-02-28T04:56:25.223Z,7.67
2019-02-28T04:57:25.238Z,7.67
2019-02-28T04:58:25.905Z,7.69
2019-02-28T04:59:25.232Z,7.58
2019-02-28T05:00:25.240Z,7.60
2019-02-28T05:01:25.244Z,7.62
2019-02-28T05:02:25.249Z,7.60
2019-02-28T05:03:27.989Z,7.66
2019-02-28T05:04:25.258Z,7.60
2019-02-28T05:05:25.260Z,7.58
2019-02-28T05:06:25.270Z,7.60
2019-02-28T05:07:26.268Z,7.54
2019-02-28T05:08:25.277Z,7.62
2019-02-28T05:09:25.282Z,7.60
2019-02-28T05:10:25.287Z,7.51
2019-02-28T05:11:27.469Z,7.58
2019-02-28T05:12:25.296Z,7.51
2019-02-28T05:13:25.315Z,7.52
2019-02-28T05:14:25.308Z,7.45
2019-02-28T05:15:25.321Z,7.48
2019-02-28T05:16:25.324Z,7.48
2019-02-28T05:17:25.321Z,7.45
2019-02-28T05:18:27.578Z,7.44
2019-02-28T05:19:25.331Z,7.33
2019-02-28T05:20:25.340Z,7.34
2019-02-28T05:21:25.339Z,7.34
2019-02-28T05:22:27.603Z,7.32
2019-02-28T05:23:25.345Z,7.30
2019-02-28T05:24:25.353Z,7.34
2019-02-28T05:25:25.361Z,7.34
2019-02-28T05:26:26.271Z,7.36
2019-02-28T05:27:25.375Z,7.33
2019-02-28T05:28:25.370Z,7.26
2019-02-28T05:29:25.377Z,7.33
2019-02-28T05:30:25.385Z,7.33
2019-02-28T05:31:27.088Z,7.29
2019-02-28T05:32:25.392Z,7.29
2019-02-28T05:33:25.392Z,7.16
2019-02-28T05:34:25.430Z,7.36
2019-02-28T05:35:26.629Z,7.26
2019-02-28T05:36:25.411Z,7.30
2019-02-28T05:37:25.414Z,7.36
2019-02-28T05:38:25.423Z,7.42
2019-02-28T05:39:28.184Z,7.30
2019-02-28T05:40:25.439Z,7.33
2019-02-28T05:41:25.435Z,7.34
2019-02-28T05:42:25.441Z,7.36
2019-02-28T05:43:25.444Z,7.32
2019-02-28T05:44:25.451Z,7.36
2019-02-28T05:45:25.456Z,7.36
2019-02-28T05:46:25.462Z,7.33
2019-02-28T05:47:26.059Z,7.27
2019-02-28T05:48:25.486Z,7.27
2019-02-28T05:49:25.473Z,7.24
2019-02-28T05:50:25.477Z,7.30
2019-02-28T05:51:25.823Z,7.26
2019-02-28T05:52:25.499Z,7.24
2019-02-28T05:53:25.492Z,7.33
2019-02-28T05:54:25.509Z,7.23
2019-02-28T05:55:25.876Z,7.30
2019-02-28T05:56:25.507Z,7.30
2019-02-28T05:57:25.510Z,7.29
2019-02-28T05:58:25.520Z,7.26
2019-02-28T05:59:27.366Z,7.24
2019-02-28T06:00:25.523Z,7.21
2019-02-28T06:01:25.527Z,7.23
2019-02-28T06:02:25.725Z,7.26
2019-02-28T06:03:25.539Z,7.21
2019-02-28T06:04:25.542Z,7.19
2019-02-28T06:05:25.547Z,7.09
2019-02-28T06:06:25.551Z,7.07
2019-02-28T06:07:25.952Z,7.14
2019-02-28T06:08:25.562Z,7.08
2019-02-28T06:09:25.570Z,7.23
2019-02-28T06:10:25.572Z,7.12
2019-02-28T06:11:25.576Z,7.12
2019-02-28T06:12:25.578Z,6.99
2019-02-28T06:13:25.586Z,7.00
2019-02-28T06:14:27.530Z,6.96
2019-02-28T06:15:25.595Z,6.90
2019-02-28T06:16:25.598Z,6.93
2019-02-28T06:17:25.606Z,6.82
2019-02-28T06:18:27.002Z,6.75
2019-02-28T06:19:25.615Z,6.68
2019-02-28T06:20:25.617Z,6.71
2019-02-28T06:21:25.622Z,6.72
2019-02-28T06:22:25.627Z,6.82
2019-02-28T06:23:25.633Z,6.75
2019-02-28T06:24:25.637Z,6.81
2019-02-28T06:25:25.835Z,6.81
2019-02-28T06:26:25.641Z,6.76
2019-02-28T06:27:25.651Z,6.79
2019-02-28T06:28:27.702Z,6.81
2019-02-28T06:29:25.659Z,6.79
2019-02-28T06:30:27.682Z,6.78
2019-02-28T06:31:25.665Z,6.82
2019-02-28T06:32:27.354Z,6.81
2019-02-28T06:33:25.675Z,6.82
2019-02-28T06:34:25.678Z,6.89
2019-02-28T06:35:25.685Z,6.90
2019-02-28T06:36:29.176Z,6.83
2019-02-28T06:37:25.690Z,6.81
2019-02-28T06:38:25.700Z,6.89
2019-02-28T06:39:26.852Z,6.90
2019-02-28T06:40:25.702Z,6.87
2019-02-28T06:41:25.715Z,7.00
2019-02-28T06:42:25.716Z,6.97
2019-02-28T06:43:25.721Z,6.91
2019-02-28T06:44:27.028Z,6.93
2019-02-28T06:45:25.725Z,6.90
2019-02-28T06:46:25.733Z,6.94
2019-02-28T06:47:25.739Z,6.90
2019-02-28T06:48:26.702Z,6.93
2019-02-28T06:49:25.751Z,6.97
2019-02-28T06:50:25.759Z,6.96
2019-02-28T06:51:25.754Z,7.07
2019-02-28T06:52:26.022Z,6.99
2019-02-28T06:53:25.756Z,6.94
2019-02-28T06:54:25.770Z,6.96
2019-02-28T06:55:25.782Z,6.94
2019-02-28T06:56:25.783Z,6.91
2019-02-28T06:57:26.912Z,6.81
2019-02-28T06:58:25.791Z,7.00
2019-02-28T06:59:25.794Z,6.94
2019-02-28T07:00:25.801Z,6.89
2019-02-28T07:01:25.806Z,6.89
2019-02-28T07:02:28.496Z,6.89
2019-02-28T07:03:25.814Z,7.01
2019-02-28T07:04:25.816Z,6.94
2019-02-28T07:05:26.361Z,6.97
2019-02-28T07:06:25.828Z,6.90
2019-02-28T07:07:25.834Z,6.94
2019-02-28T07:08:28.815Z,6.99
2019-02-28T07:09:25.845Z,6.97
2019-02-28T07:10:25.860Z,6.97
2019-02-28T07:11:25.857Z,6.97
2019-02-28T07:12:29.540Z,6.97
2019-02-28T07:13:25.867Z,7.00
2019-02-28T07:14:25.888Z,7.07
2019-02-28T07:15:25.875Z,7.05
2019-02-28T07:16:25.894Z,7.12
2019-02-28T07:17:25.884Z,7.05
2019-02-28T07:18:25.898Z,7.14
2019-02-28T07:19:26.393Z,7.14
2019-02-28T07:20:25.899Z,7.19
2019-02-28T07:21:25.910Z,7.21
2019-02-28T07:22:25.908Z,7.29
2019-02-28T07:23:26.772Z,7.30
2019-02-28T07:24:25.933Z,7.32
2019-02-28T07:25:25.926Z,7.39
2019-02-28T07:26:25.941Z,7.41
2019-02-28T07:27:26.672Z,7.34
2019-02-28T07:28:25.942Z,7.33
2019-02-28T07:29:25.953Z,7.41
2019-02-28T07:30:25.957Z,7.48
2019-02-28T07:31:25.961Z,7.51
2019-02-28T07:32:26.236Z,7.50
2019-02-28T07:33:25.964Z,7.55
2019-02-28T07:34:25.979Z,7.54
2019-02-28T07:35:25.974Z,7.69
2019-02-28T07:36:25.998Z,7.67
2019-02-28T07:37:25.992Z,7.69
2019-02-28T07:38:29.027Z,7.77
2019-02-28T07:39:26.023Z,7.81
2019-02-28T07:40:26.015Z,7.73
2019-02-28T07:41:26.782Z,7.86
2019-02-28T07:42:26.033Z,7.91
2019-02-28T07:43:26.035Z,7.94
2019-02-28T07:44:26.049Z,7.85
2019-02-28T07:45:26.053Z,7.91
2019-02-28T07:46:26.056Z,8.18
2019-02-28T07:47:26.070Z,8.12
2019-02-28T07:48:29.236Z,8.14
2019-02-28T07:49:26.118Z,8.14
2019-02-28T07:50:26.108Z,8.18
2019-02-28T07:51:26.457Z,8.21
2019-02-28T07:52:32.460Z,8.13
2019-02-28T07:53:26.127Z,8.14
2019-02-28T07:54:26.137Z,8.13
2019-02-28T07:55:27.263Z,8.12
2019-02-28T07:56:26.152Z,8.13
2019-02-28T07:57:26.166Z,8.13
2019-02-28T07:58:26.588Z,8.21
2019-02-28T07:59:26.182Z,8.31
2019-02-28T08:00:26.193Z,8.47
2019-02-28T08:01:27.671Z,8.31
2019-02-28T08:02:26.207Z,8.43
2019-02-28T08:03:26.244Z,8.39
2019-02-28T08:04:26.232Z,8.58
2019-02-28T08:05:29.673Z,8.55
2019-02-28T08:06:26.246Z,8.50
2019-02-28T08:07:26.269Z,8.55
2019-02-28T08:08:26.989Z,8.58
2019-02-28T08:09:26.283Z,8.57
2019-02-28T08:10:26.293Z,8.55
2019-02-28T08:11:26.314Z,8.52
2019-02-28T08:12:27.447Z,8.54
2019-02-28T08:13:26.344Z,8.67
2019-02-28T08:14:26.344Z,8.67
2019-02-28T08:15:26.344Z,8.85
2019-02-28T08:16:26.356Z,8.86
2019-02-28T08:17:26.376Z,8.78
2019-02-28T08:18:26.374Z,8.85
2019-02-28T08:19:27.941Z,9.06
2019-02-28T08:20:26.403Z,9.03
2019-02-28T08:21:26.418Z,9.17
2019-02-28T08:22:26.429Z,9.19
2019-02-28T08:23:29.846Z,9.12
2019-02-28T08:24:26.677Z,9.12
2019-02-28T08:25:26.456Z,9.06
2019-02-28T08:26:26.476Z,9.13
2019-02-28T08:27:26.477Z,9.06
2019-02-28T08:28:26.491Z,8.94
2019-02-28T08:29:26.505Z,9.12
2019-02-28T08:30:26.522Z,9.17
2019-02-28T08:31:28.317Z,9.27
2019-02-28T08:32:26.537Z,9.23
2019-02-28T08:33:26.553Z,9.15
2019-02-28T08:34:26.561Z,9.15
2019-02-28T08:35:26.586Z,9.19
2019-02-28T08:36:26.586Z,9.32
2019-02-28T08:37:26.592Z,9.42
2019-02-28T08:38:26.605Z,9.44
2019-02-28T08:39:26.624Z,9.62
2019-02-28T08:40:27.128Z,9.80
2019-02-28T08:41:26.667Z,9.95
2019-02-28T08:42:26.650Z,9.99
2019-02-28T08:43:27.468Z,10.07
2019-02-28T08:44:26.678Z,9.92
2019-02-28T08:45:32.683Z,9.99
2019-02-28T08:46:26.705Z,10.14
2019-02-28T08:47:26.726Z,10.39
2019-02-28T08:48:31.549Z,10.65
2019-02-28T08:49:26.736Z,10.73
2019-02-28T08:50:26.760Z,10.86
2019-02-28T08:51:27.811Z,11.03
2019-02-28T08:52:26.782Z,10.69
2019-02-28T08:53:26.809Z,10.70
2019-02-28T08:54:27.566Z,10.91
2019-02-28T08:55:29.078Z,11.02
2019-02-28T08:56:26.834Z,10.87
2019-02-28T08:57:26.855Z,11.02
2019-02-28T08:58:26.858Z,11.09
2019-02-28T08:59:26.881Z,11.13
2019-02-28T09:00:31.321Z,11.33
2019-02-28T09:01:26.901Z,10.95
2019-02-28T09:02:26.922Z,10.80
2019-02-28T09:03:27.318Z,10.76
2019-02-28T09:04:26.944Z,10.72
2019-02-28T09:05:29.943Z,10.63
2019-02-28T09:06:27.621Z,10.72
2019-02-28T09:07:26.992Z,10.93
2019-02-28T09:08:27.015Z,10.72
2019-02-28T09:09:27.007Z,10.83
2019-02-28T09:10:27.018Z,10.78
2019-02-28T09:11:27.037Z,10.65
2019-02-28T09:12:29.942Z,10.62
2019-02-28T09:13:27.073Z,10.57
2019-02-28T09:14:27.096Z,10.52
2019-02-28T09:15:30.438Z,10.43
2019-02-28T09:16:27.085Z,10.36
2019-02-28T09:17:27.103Z,10.38
2019-02-28T09:18:27.122Z,10.47
2019-02-28T09:19:27.129Z,10.57
2019-02-28T09:20:27.137Z,10.84
2019-02-28T09:21:27.141Z,10.88
2019-02-28T09:22:28.056Z,10.73
2019-02-28T09:23:27.176Z,10.58
2019-02-28T09:24:27.197Z,10.58
2019-02-28T09:25:27.208Z,10.76
2019-02-28T09:26:28.234Z,11.03
2019-02-28T09:27:27.212Z,11.13
2019-02-28T09:28:27.228Z,11.31
2019-02-28T09:29:27.235Z,11.28
2019-02-28T09:30:29.668Z,11.08
2019-02-28T09:31:27.262Z,11.02
2019-02-28T09:32:27.274Z,11.09
2019-02-28T09:33:27.282Z,11.09
2019-02-28T09:34:27.297Z,10.94
2019-02-28T09:35:27.311Z,10.90
2019-02-28T09:36:27.328Z,10.73
2019-02-28T09:37:29.827Z,10.80
2019-02-28T09:38:27.363Z,10.69
2019-02-28T09:39:27.349Z,10.66
2019-02-28T09:40:29.518Z,10.84
2019-02-28T09:41:27.370Z,11.03
2019-02-28T09:42:27.384Z,11.35
2019-02-28T09:43:27.402Z,11.42
2019-02-28T09:44:27.405Z,11.48
2019-02-28T09:45:27.413Z,11.42
2019-02-28T09:46:27.423Z,11.13
2019-02-28T09:47:27.544Z,11.01
2019-02-28T09:48:27.451Z,10.93
2019-02-28T09:49:27.458Z,11.05
2019-02-28T09:50:27.468Z,10.95
2019-02-28T09:51:31.664Z,10.99
2019-02-28T09:52:27.494Z,11.01
2019-02-28T09:53:27.495Z,10.90
2019-02-28T09:54:27.510Z,10.73
2019-02-28T09:55:27.531Z,10.62
2019-02-28T09:56:27.528Z,10.70
2019-02-28T09:57:27.544Z,10.73
2019-02-28T09:58:29.339Z,11.02
2019-02-28T09:59:27.562Z,11.17
2019-02-28T10:00:27.794Z,11.42
2019-02-28T10:01:27.584Z,11.82
2019-02-28T10:02:27.596Z,12.07
2019-02-28T10:03:27.605Z,12.38
2019-02-28T10:04:30.548Z,12.77
2019-02-28T10:05:27.634Z,12.94
2019-02-28T10:06:27.644Z,12.69
2019-02-28T10:07:27.644Z,12.62
2019-02-28T10:08:27.657Z,12.98
2019-02-28T10:09:27.673Z,13.43
2019-02-28T10:10:27.692Z,13.48
2019-02-28T10:11:31.362Z,13.72
2019-02-28T10:12:27.717Z,14.16
2019-02-28T10:13:27.728Z,14.09
2019-02-28T10:14:28.988Z,13.94
2019-02-28T10:15:27.746Z,14.24
2019-02-28T10:16:27.765Z,14.63
2019-02-28T10:17:28.940Z,15.22
2019-02-28T10:18:27.792Z,15.52
2019-02-28T10:19:27.806Z,15.89
2019-02-28T10:20:28.538Z,15.86
2019-02-28T10:21:27.844Z,15.44
2019-02-28T10:22:27.855Z,15.37
2019-02-28T10:23:27.871Z,14.98
2019-02-28T10:24:28.376Z,15.01
2019-02-28T10:25:27.951Z,15.09
2019-02-28T10:26:28.036Z,15.31
2019-02-28T10:27:28.146Z,15.35
2019-02-28T10:28:28.138Z,15.76
2019-02-28T10:29:27.947Z,15.74
2019-02-28T10:30:32.218Z,15.68
2019-02-28T10:31:36.104Z,15.60
2019-02-28T10:32:28.164Z,15.76
2019-02-28T10:33:28.101Z,15.30
2019-02-28T10:34:28.029Z,15.27
2019-02-28T10:35:28.058Z,15.55
2019-02-28T10:36:28.062Z,15.78
2019-02-28T10:37:28.083Z,16.26
2019-02-28T10:38:32.565Z,15.92
2019-02-28T10:39:28.109Z,16.01
2019-02-28T10:40:28.123Z,16.36
2019-02-28T10:41:31.121Z,16.25
2019-02-28T10:42:28.148Z,15.80
2019-02-28T10:43:28.162Z,15.30
2019-02-28T10:44:30.700Z,14.60
2019-02-28T10:45:28.214Z,14.49
2019-02-28T10:46:28.212Z,14.59
2019-02-28T10:47:29.687Z,15.13
2019-02-28T10:48:28.283Z,15.13
2019-02-28T10:49:28.250Z,15.35
2019-02-28T10:50:31.982Z,15.41
2019-02-28T10:51:28.285Z,15.43
2019-02-28T10:52:30.531Z,15.11
2019-02-28T10:53:29.594Z,14.79
2019-02-28T10:54:28.331Z,14.86
2019-02-28T10:55:28.336Z,15.04
2019-02-28T10:56:31.749Z,15.13
2019-02-28T10:57:28.363Z,15.46
2019-02-28T10:58:28.376Z,15.52
2019-02-28T10:59:28.405Z,15.33
2019-02-28T11:00:29.488Z,15.22
2019-02-28T11:01:28.424Z,15.09
2019-02-28T11:02:28.437Z,14.98
2019-02-28T11:03:32.131Z,14.90
2019-02-28T11:04:30.176Z,15.04
2019-02-28T11:05:28.485Z,15.41
2019-02-28T11:06:28.914Z,15.80
2019-02-28T11:07:28.500Z,15.62
2019-02-28T11:08:28.515Z,15.19
2019-02-28T11:09:28.531Z,15.19
2019-02-28T11:10:28.927Z,15.00
2019-02-28T11:11:28.571Z,14.67
2019-02-28T11:12:28.564Z,14.41
2019-02-28T11:13:32.128Z,14.63
2019-02-28T11:14:28.595Z,15.04
2019-02-28T11:15:28.608Z,15.27
2019-02-28T11:16:28.632Z,15.03
2019-02-28T11:17:30.387Z,15.28
2019-02-28T11:18:28.649Z,15.30
2019-02-28T11:19:28.673Z,15.28
2019-02-28T11:20:28.670Z,16.07
2019-02-28T11:21:29.833Z,16.81
2019-02-28T11:22:28.703Z,17.17
2019-02-28T11:23:28.716Z,17.65
2019-02-28T11:24:28.733Z,17.74
2019-02-28T11:25:28.740Z,17.73
2019-02-28T11:26:28.763Z,18.19
2019-02-28T11:27:28.766Z,17.70
2019-02-28T11:28:29.334Z,17.49
2019-02-28T11:29:28.795Z,17.21
2019-02-28T11:30:28.812Z,16.67
2019-02-28T11:31:28.823Z,16.60
2019-02-28T11:32:29.360Z,16.52
2019-02-28T11:33:28.857Z,16.66
2019-02-28T11:34:28.879Z,16.72
2019-02-28T11:35:28.884Z,16.63
2019-02-28T11:36:30.468Z,16.60
2019-02-28T11:37:28.918Z,16.62
2019-02-28T11:38:28.928Z,16.80
2019-02-28T11:39:30.799Z,16.82
2019-02-28T11:40:28.966Z,16.92
2019-02-28T11:41:28.984Z,16.87
2019-02-28T11:42:29.825Z,16.65
2019-02-28T11:43:29.004Z,16.75
2019-02-28T11:44:29.032Z,16.67
2019-02-28T11:45:29.043Z,16.72
2019-02-28T11:46:29.047Z,17.10
2019-02-28T11:47:29.073Z,16.95
2019-02-28T11:48:29.079Z,17.10
2019-02-28T11:49:29.487Z,17.30
2019-02-28T11:50:29.115Z,17.46
2019-02-28T11:51:30.360Z,17.89
2019-02-28T11:52:29.135Z,17.87
2019-02-28T11:53:29.156Z,17.24
2019-02-28T11:54:29.179Z,16.92
2019-02-28T11:55:29.186Z,16.82
2019-02-28T11:56:29.518Z,16.80
2019-02-28T11:57:29.218Z,16.69
2019-02-28T11:58:30.490Z,16.59
2019-02-28T11:59:29.250Z,16.62
2019-02-28T12:00:29.248Z,16.14
2019-02-28T12:01:29.268Z,16.06
2019-02-28T12:02:29.283Z,16.26
2019-02-28T12:03:31.808Z,16.37
2019-02-28T12:04:29.311Z,16.44
2019-02-28T12:05:29.340Z,16.06
2019-02-28T12:06:29.340Z,15.53
2019-02-28T12:07:34.713Z,15.18
2019-02-28T12:08:29.374Z,15.23
2019-02-28T12:09:29.375Z,15.35
2019-02-28T12:10:29.387Z,15.25
2019-02-28T12:11:29.400Z,15.13
2019-02-28T12:12:29.413Z,15.22
2019-02-28T12:13:29.429Z,15.12
2019-02-28T12:14:30.102Z,14.83
2019-02-28T12:15:29.450Z,14.64
2019-02-28T12:16:29.461Z,14.80
2019-02-28T12:17:29.476Z,14.64
2019-02-28T12:18:29.490Z,14.82
2019-02-28T12:19:29.499Z,14.82
2019-02-28T12:20:29.527Z,14.80
2019-02-28T12:21:29.528Z,14.87
2019-02-28T12:22:29.539Z,14.85
2019-02-28T12:23:29.549Z,14.72
2019-02-28T12:24:32.370Z,14.69
2019-02-28T12:25:29.565Z,14.63
2019-02-28T12:26:29.577Z,14.46
2019-02-28T12:27:29.582Z,14.49
2019-02-28T12:28:29.598Z,14.71
2019-02-28T12:29:29.608Z,14.80
2019-02-28T12:30:29.628Z,14.83
2019-02-28T12:31:32.050Z,14.67
2019-02-28T12:32:29.643Z,14.93
2019-02-28T12:33:29.650Z,14.85
2019-02-28T12:34:29.973Z,15.00
2019-02-28T12:35:29.679Z,15.07
2019-02-28T12:36:29.684Z,15.13
2019-02-28T12:37:29.704Z,15.22
2019-02-28T12:38:29.710Z,15.71
2019-02-28T12:39:29.716Z,15.85
2019-02-28T12:40:29.733Z,16.27
2019-02-28T12:41:29.738Z,16.57
2019-02-28T12:42:31.660Z,16.62
2019-02-28T12:43:29.761Z,16.77
2019-02-28T12:44:29.768Z,16.82
2019-02-28T12:45:29.789Z,16.67
2019-02-28T12:46:31.887Z,16.67
2019-02-28T12:47:29.825Z,16.14
2019-02-28T12:48:29.825Z,16.06
2019-02-28T12:49:29.848Z,16.25
2019-02-28T12:50:30.394Z,16.40
2019-02-28T12:51:29.861Z,16.48
2019-02-28T12:52:29.868Z,16.14
2019-02-28T12:53:29.879Z,16.36
2019-02-28T12:54:30.382Z,16.51
2019-02-28T12:55:29.898Z,16.52
2019-02-28T12:56:29.913Z,16.60
2019-02-28T12:57:29.929Z,16.37
2019-02-28T12:58:38.625Z,16.13
2019-02-28T12:59:29.945Z,15.93
2019-02-28T13:00:29.959Z,15.99
2019-02-28T13:01:33.184Z,16.27
2019-02-28T13:02:29.985Z,16.51
2019-02-28T13:03:29.999Z,16.72
2019-02-28T13:04:32.529Z,16.41
2019-02-28T13:05:30.020Z,16.36
2019-02-28T13:06:30.035Z,16.22
2019-02-28T13:07:30.463Z,16.23